Detall de PIREP

Printer-friendly versionPDF version

[2010/07/19 21:14:00]
Flight IATA:CT2210
Pilot Number:026
Company ICAO:CAT
Aircraft Type:DC85/A
PAX:136
Departing Airport: LFMP
Destination Airport: LFPG
Alternate Airport:EBBR
Online: VATSIM
Route:FJR UM731 DIVKO UM984 PADKO UN854 DJL
Flight Level:FL320
No Slew and time accel
No pause
Crash detect
Detect pilot in Cockpit between each 30 and 45 minutes
21:14 Zero fuel Weight: 185719 Lbs, Fuel Weight: 27998 Lbs
21:14 VATSIM:LFMP 192100Z AUTO 31007KT 290V350 9999NDV NSC 29/09 Q1015
21:14 VATSIM:LFPG 192100Z 03004KT CAVOK 22/12 Q1018 NOSIG
21:14 VOICE CATALONIAN / IATA CT2210
21:19 Parking Brakes off
21:31 Take-off
21:31 Take off Weight: 211882 Lbs
21:31 Wind: 311º @ 008 Knots Heading: 328º
21:31 POS N42º 45´ 02´´ E002º 51´ 52´´
21:31 Gear Up: 177 Knots
21:31 Flaps:2 at 177 Knots 21:32 Flaps:1 at 178 Knots
21:33 Flaps:0 at 214 Knots
21:42 TOC
21:42 Fuel Weight: 22520 Lb
21:46 Wind:084º@006 Knots Heading: 100º Ground Speed: 474 Knots Altitude 32165 ft
21:54 Flaps:5 at 304 Knots
21:54 Flaps:0 at 303 Knots
22:01 Wind:026º@032 Knots Heading: 347º Ground Speed: 466 Knots Altitude 32178 ft
22:16 Wind:009º@008 Knots Heading: 359º Ground Speed: 472 Knots Altitude 32227 ft
22:22 TOD
22:22 Fuel Weight: 13617 Lb
22:31 Wind:065º@029 Knots Heading: 325º Ground Speed: 435 Knots Altitude 19734 ft
22:46 Wind:026º@008 Knots Heading: 269º Ground Speed: 249 Knots Altitude 6778 ft
22:49 Flaps:1 at 163 Knots
22:50 Flaps:2 at 238 Knots
22:50 Gear Down: 235 Knots
22:50 Flaps:3 at 199 Knots
22:51 Flaps:4 at 180 Knots
22:51 Flaps:5 at 159 Knots
22:52 TouchDown:Rate -183 ft/min Speed: 134 Knots
22:53 VATSIM:LFPG 192230Z 05007KT 020V130 CAVOK 21/11 Q1017 NOSIG
22:53 Land
22:53 Wind:034º@005 Knots
22:53 Heading: 085º
22:53 Flight Duration: 01:22
22:53 Landing Weight: 194185 Lbs
22:53 POS N49º 01´ 32´´ E002º 32´ 47´´
23:01 Parking brakes on
23:01 Block to Block Duration: 01:42
23:01 Final Fuel: 8362 Lbls
23:01 Spent Fuel: 19636 Lbls
23:01 Flight Length: 570 NM
23:01 TOD Land Length: 186 NM

Exportar CSV

Powered by Drupal - Modified by Danger4k